Time;durP1;ratioP1;P1;durP2;ratioP2;P2;SDS_P1;SDS_P2;PMS_P1;PMS_P2;Temp;Humidity;BMP_temperature;BMP_pressure;BME280_temperature;BME280_humidity;BME280_pressure;Samples;Min_cycle;Max_cycle;Signal;HPM_P1;HPM_P2
2021/01/13 00:02:11;;;;;;;7.20;1.63;;;2.20;99.90;;;;;;10406126;28;20106;-66
2021/01/13 00:07:14;;;;;;;7.72;1.50;;;2.10;99.90;;;;;;10431687;28;20114;-66
2021/01/13 00:12:15;;;;;;;4.18;1.65;;;2.20;99.90;;;;;;10414640;28;20052;-67
2021/01/13 00:17:17;;;;;;;7.15;2.13;;;2.00;99.90;;;;;;10395507;28;20131;-67
2021/01/13 00:22:19;;;;;;;9.65;2.65;;;1.90;99.90;;;;;;10404344;28;20494;-66
2021/01/13 00:27:21;;;;;;;6.28;2.47;;;2.00;99.90;;;;;;10409156;28;20533;-66
2021/01/13 00:32:23;;;;;;;7.55;1.98;;;1.80;99.90;;;;;;10386559;28;20040;-66
2021/01/13 00:37:25;;;;;;;12.35;2.53;;;1.70;99.90;;;;;;10402645;28;20042;-66
2021/01/13 00:42:26;;;;;;;11.18;2.63;;;1.50;99.90;;;;;;10380834;28;20084;-66
2021/01/13 00:47:27;;;;;;;7.03;2.13;;;1.30;99.90;;;;;;10379586;28;20561;-66
2021/01/13 00:52:28;;;;;;;8.57;2.85;;;1.10;99.90;;;;;;10397840;28;20045;-66
2021/01/13 00:57:30;;;;;;;10.02;3.20;;;0.80;99.90;;;;;;10388921;28;20052;-66
2021/01/13 01:02:31;;;;;;;10.75;3.45;;;0.70;99.90;;;;;;10388776;28;20049;-66
2021/01/13 01:07:32;;;;;;;9.00;2.83;;;0.60;99.90;;;;;;10389546;28;20057;-66
2021/01/13 01:12:34;;;;;;;9.88;3.50;;;0.40;99.90;;;;;;10399453;28;20049;-66
2021/01/13 01:17:35;;;;;;;15.32;3.42;;;0.40;99.90;;;;;;10398467;28;20045;-66
2021/01/13 01:22:49;;;;;;;9.32;2.97;;;0.40;99.90;;;;;;10389622;28;20055;-66
2021/01/13 01:27:53;;;;;;;8.93;3.28;;;0.60;99.90;;;;;;10295516;28;20055;-66
2021/01/13 01:32:55;;;;;;;12.52;2.88;;;0.70;99.90;;;;;;10375435;28;20470;-66
2021/01/13 01:37:56;;;;;;;5.22;3.22;;;0.80;99.90;;;;;;10381612;28;20987;-66
2021/01/13 01:42:58;;;;;;;8.32;2.45;;;0.90;99.90;;;;;;10404019;28;20036;-66
2021/01/13 01:48:02;;;;;;;10.23;2.95;;;1.00;99.90;;;;;;10383793;28;20058;-66
2021/01/13 01:53:34;;;;;;;7.78;2.33;;;1.30;99.90;;;;;;10383287;28;20077;-66
2021/01/13 01:58:36;;;;;;;8.05;2.65;;;1.30;99.90;;;;;;10353571;28;20098;-66
2021/01/13 02:03:48;;;;;;;7.25;2.35;;;1.30;99.90;;;;;;10384446;28;20387;-67
2021/01/13 02:08:49;;;;;;;11.63;2.53;;;1.20;99.90;;;;;;10351707;28;20376;-67
2021/01/13 02:13:50;;;;;;;7.65;2.08;;;1.20;99.90;;;;;;10398193;28;20052;-67
2021/01/13 02:18:52;;;;;;;10.82;2.70;;;1.20;99.90;;;;;;10406667;28;20080;-67
2021/01/13 02:24:42;;;;;;;19.63;3.35;;;1.20;99.90;;;;;;10405492;28;20044;-67
2021/01/13 02:29:49;;;;;;;9.68;2.25;;;1.30;99.90;;;;;;10339234;28;20092;-67
2021/01/13 02:35:04;;;;;;;14.88;2.58;;;1.40;99.90;;;;;;10414713;28;20655;-66
2021/01/13 02:40:27;;;;;;;9.43;2.10;;;1.40;99.90;;;;;;10378902;28;20033;-67
2021/01/13 02:45:45;;;;;;;13.27;2.70;;;1.30;99.90;;;;;;10332140;28;20057;-66
2021/01/13 02:50:52;;;;;;;;;;;1.40;99.90;;;;;;10383722;28;20057;-66
2021/01/13 02:55:56;;;;;;;6.88;2.00;;;1.50;99.90;;;;;;10391897;28;19928;-66
2021/01/13 03:00:58;;;;;;;22.13;6.38;;;1.60;99.90;;;;;;10391669;28;20483;-66
2021/01/13 03:06:05;;;;;;;11.23;2.08;;;1.70;99.90;;;;;;10418295;28;20470;-66
2021/01/13 03:11:07;;;;;;;9.88;2.45;;;1.70;99.90;;;;;;10414782;28;20040;-66
2021/01/13 03:16:09;;;;;;;10.55;2.65;;;1.50;99.90;;;;;;10416105;28;20098;-66
2021/01/13 03:21:20;;;;;;;7.78;2.03;;;1.30;99.90;;;;;;10414347;28;20095;-66
2021/01/13 03:26:30;;;;;;;7.32;2.00;;;1.20;99.90;;;;;;10396421;28;20060;-66
2021/01/13 03:31:45;;;;;;;7.07;1.73;;;1.20;99.90;;;;;;10403140;28;20053;-66
2021/01/13 03:37:15;;;;;;;7.28;1.92;;;1.00;99.90;;;;;;10377018;28;20057;-67
2021/01/13 03:42:19;;;;;;;8.68;2.13;;;0.90;99.90;;;;;;10385289;28;20060;-66
2021/01/13 03:47:29;;;;;;;14.95;3.90;;;0.70;99.90;;;;;;10382527;28;20045;-66
2021/01/13 03:52:39;;;;;;;9.20;2.08;;;0.60;99.90;;;;;;10397687;28;20099;-68
2021/01/13 03:58:09;;;;;;;7.20;2.58;;;0.60;99.90;;;;;;10407144;28;20042;-69
2021/01/13 04:03:21;;;;;;;14.00;3.17;;;0.50;99.90;;;;;;10391076;28;20049;-69
2021/01/13 04:08:23;;;;;;;12.98;2.78;;;0.50;99.90;;;;;;10412581;28;20056;-69
2021/01/13 04:13:44;;;;;;;9.82;2.45;;;0.60;99.90;;;;;;10406590;28;20045;-68
2021/01/13 04:18:48;;;;;;;9.57;2.70;;;0.50;99.90;;;;;;10394192;28;20053;-68
2021/01/13 04:23:49;;;;;;;10.40;2.65;;;0.30;99.90;;;;;;10380086;28;20042;-68
2021/01/13 04:28:51;;;;;;;11.43;2.90;;;0.20;99.90;;;;;;10407805;28;20056;-68
2021/01/13 04:33:55;;;;;;;9.88;2.58;;;0.00;99.90;;;;;;10400619;28;20041;-68
2021/01/13 04:39:01;;;;;;;10.63;3.33;;;-0.10;99.90;;;;;;10410107;28;20176;-68
2021/01/13 04:44:03;;;;;;;12.00;2.28;;;-0.10;99.90;;;;;;10393699;28;20483;-68
2021/01/13 04:49:19;;;;;;;8.20;1.50;;;-0.20;99.90;;;;;;10393789;28;20049;-68
2021/01/13 04:54:21;;;;;;;7.80;2.40;;;-0.30;99.90;;;;;;10282764;28;20052;-68
2021/01/13 04:59:31;;;;;;;13.93;2.53;;;-0.40;99.90;;;;;;10402831;28;20095;-68
2021/01/13 05:05:00;;;;;;;8.77;2.15;;;-0.30;99.90;;;;;;10409761;28;20506;-68
2021/01/13 05:10:08;;;;;;;4.07;2.33;;;-0.40;99.90;;;;;;10335046;28;20065;-68
2021/01/13 05:15:23;;;;;;;6.30;2.30;;;-0.30;99.90;;;;;;10396314;28;20050;-68
2021/01/13 05:20:54;;;;;;;9.25;2.95;;;-0.30;99.90;;;;;;10302604;28;20033;-68
2021/01/13 05:25:56;;;;;;;11.27;2.33;;;-0.20;99.90;;;;;;10361206;28;20041;-68
2021/01/13 05:30:59;;;;;;;15.25;1.80;;;-0.20;99.90;;;;;;10394106;28;20196;-68
2021/01/13 05:36:04;;;;;;;7.55;2.05;;;0.00;99.90;;;;;;10401839;28;20063;-68
2021/01/13 05:41:11;;;;;;;11.75;2.22;;;0.00;99.90;;;;;;10403403;28;20385;-68
2021/01/13 05:46:15;;;;;;;5.78;1.50;;;0.00;99.90;;;;;;10425335;28;20426;-69
2021/01/13 05:51:28;;;;;;;3.05;0.90;;;-0.10;99.90;;;;;;10422685;28;20110;-68
2021/01/13 05:56:35;;;;;;;9.48;1.50;;;-0.20;99.90;;;;;;10423889;28;20092;-68
2021/01/13 06:01:47;;;;;;;8.87;2.60;;;-0.30;99.90;;;;;;10422534;28;20106;-68
2021/01/13 06:07:16;;;;;;;6.32;1.33;;;-0.20;99.90;;;;;;10423055;28;20483;-68
2021/01/13 06:12:19;;;;;;;9.18;1.15;;;-0.20;99.90;;;;;;10399296;28;20041;-68
2021/01/13 06:17:27;;;;;;;11.60;1.92;;;-0.20;99.90;;;;;;10424070;28;20048;-68
2021/01/13 06:22:33;;;;;;;8.48;1.77;;;-0.20;99.90;;;;;;10407522;28;20045;-68
2021/01/13 06:28:22;;;;;;;8.48;1.48;;;-0.20;99.90;;;;;;10404625;28;20045;-68
2021/01/13 06:33:24;;;;;;;;;;;-0.10;99.90;;;;;;10350535;28;20053;-69
2021/01/13 06:38:33;;;;;;;9.13;1.85;;;-0.20;99.90;;;;;;10416494;28;19928;-68
2021/01/13 06:43:34;;;;;;;5.22;1.60;;;-0.20;99.90;;;;;;10402037;28;20663;-65
2021/01/13 06:48:36;;;;;;;9.32;1.52;;;-0.20;99.90;;;;;;10422154;28;20095;-65
2021/01/13 06:53:38;;;;;;;6.47;1.63;;;-0.20;99.90;;;;;;10417203;28;20218;-66
2021/01/13 06:58:55;;;;;;;9.07;1.80;;;-0.20;99.90;;;;;;10415243;28;20198;-65
2021/01/13 07:04:01;;;;;;;7.67;2.30;;;-0.30;99.90;;;;;;10315053;28;20052;-64
2021/01/13 07:09:02;;;;;;;9.93;3.65;;;-0.30;99.90;;;;;;10392024;28;20061;-64
2021/01/13 07:14:05;;;;;;;8.75;1.63;;;-0.40;99.90;;;;;;10419718;28;20449;-64
2021/01/13 07:19:07;;;;;;;5.35;1.70;;;-0.40;99.90;;;;;;10416923;28;20060;-65
2021/01/13 07:24:15;;;;;;;4.47;1.55;;;-0.30;99.90;;;;;;10410443;28;20053;-64
2021/01/13 07:29:17;;;;;;;4.28;1.65;;;-0.30;99.90;;;;;;10373004;28;20045;-64
2021/01/13 07:34:33;;;;;;;16.92;2.60;;;-0.40;99.90;;;;;;10385807;28;20038;-64
2021/01/13 07:40:20;;;;;;;11.27;1.83;;;-0.30;99.90;;;;;;10384431;28;20036;-65
2021/01/13 07:45:21;;;;;;;4.47;1.80;;;-0.10;99.90;;;;;;10347598;28;20077;-65
2021/01/13 07:50:23;;;;;;;6.57;2.40;;;0.00;99.90;;;;;;10379027;28;20103;-65
2021/01/13 07:55:25;;;;;;;6.88;2.10;;;0.10;99.90;;;;;;10408413;28;20053;-64
2021/01/13 08:00:37;;;;;;;17.00;2.70;;;0.10;99.90;;;;;;10398263;28;20046;-65
2021/01/13 08:05:57;;;;;;;10.27;2.85;;;0.10;99.90;;;;;;10422770;28;20080;-65
2021/01/13 08:11:05;;;;;;;7.20;2.47;;;0.00;99.90;;;;;;10375427;28;20684;-65
2021/01/13 08:16:25;;;;;;;8.85;3.45;;;-0.10;99.90;;;;;;10421687;28;20048;-64
2021/01/13 08:21:32;;;;;;;9.27;2.75;;;-0.10;99.90;;;;;;10342388;28;20029;-65
2021/01/13 08:26:37;;;;;;;12.23;2.65;;;0.10;99.90;;;;;;10409719;28;20057;-65
2021/01/13 08:31:41;;;;;;;4.80;1.70;;;0.30;99.90;;;;;;10425817;28;20060;-65
2021/01/13 08:36:54;;;;;;;7.05;1.98;;;0.50;99.90;;;;;;10402565;28;20045;-65
2021/01/13 08:42:23;;;;;;;9.00;2.00;;;0.80;99.90;;;;;;10416104;28;20128;-66
2021/01/13 08:47:26;;;;;;;14.40;3.25;;;0.90;99.90;;;;;;10340036;28;20052;-66
2021/01/13 08:52:28;;;;;;;18.13;2.67;;;1.00;99.90;;;;;;10426413;28;20049;-65
2021/01/13 08:57:57;;;;;;;18.25;3.30;;;1.10;99.90;;;;;;10442623;28;20056;-65
2021/01/13 09:03:10;;;;;;;7.00;2.95;;;1.10;99.90;;;;;;10331400;28;20044;-64
2021/01/13 09:08:12;;;;;;;8.57;3.53;;;1.00;99.90;;;;;;10425496;28;20395;-65
2021/01/13 09:13:41;;;;;;;8.73;2.53;;;1.00;99.90;;;;;;10399754;28;20099;-67
2021/01/13 09:18:44;;;;;;;9.45;3.00;;;1.20;99.90;;;;;;10405958;28;20055;-66
2021/01/13 09:23:55;;;;;;;10.25;3.20;;;1.70;99.90;;;;;;10437752;28;20076;-64
2021/01/13 09:28:59;;;;;;;5.95;2.78;;;1.90;99.90;;;;;;10431311;28;20052;-64
2021/01/13 09:34:01;;;;;;;7.68;3.10;;;2.10;99.90;;;;;;10411760;28;20055;-64
2021/01/13 09:39:13;;;;;;;8.23;3.45;;;2.20;99.90;;;;;;10434586;28;20548;-64
2021/01/13 09:44:14;;;;;;;7.38;3.25;;;2.30;99.90;;;;;;10414857;28;20049;-65
2021/01/13 09:49:16;;;;;;;9.13;3.58;;;2.50;99.90;;;;;;10413828;28;20056;-65
2021/01/13 09:54:24;;;;;;;13.52;3.63;;;2.50;99.90;;;;;;10438460;28;20044;-65
2021/01/13 09:59:26;;;;;;;8.98;4.25;;;2.50;99.90;;;;;;10433460;28;20098;-64
2021/01/13 10:04:28;;;;;;;8.27;3.28;;;2.60;99.90;;;;;;10417282;28;20037;-65
2021/01/13 10:09:29;;;;;;;6.22;3.03;;;2.70;99.90;;;;;;10407314;28;20032;-66
2021/01/13 10:14:33;;;;;;;11.77;3.83;;;2.70;99.90;;;;;;10431924;28;20048;-65
2021/01/13 10:19:34;;;;;;;6.78;2.65;;;2.90;99.90;;;;;;10408395;28;20107;-65
2021/01/13 10:24:41;;;;;;;8.98;3.17;;;3.10;99.90;;;;;;10445527;28;20371;-65
2021/01/13 10:29:46;;;;;;;11.25;3.15;;;3.10;99.90;;;;;;10411583;28;20045;-64
2021/01/13 10:34:54;;;;;;;8.65;3.63;;;3.00;99.90;;;;;;10406822;28;20483;-65
2021/01/13 10:40:08;;;;;;;8.63;3.50;;;3.00;99.90;;;;;;10443312;28;20049;-65
2021/01/13 10:45:14;;;;;;;8.50;3.03;;;3.00;99.90;;;;;;10433395;28;20379;-65
2021/01/13 10:50:18;;;;;;;11.13;3.63;;;3.00;99.90;;;;;;10400507;28;20052;-64
2021/01/13 10:55:22;;;;;;;7.97;2.80;;;3.00;99.90;;;;;;10428221;28;20044;-65
2021/01/13 11:00:26;;;;;;;7.45;2.50;;;3.10;99.90;;;;;;10415485;28;20044;-66
2021/01/13 11:05:27;;;;;;;8.60;2.90;;;3.20;99.90;;;;;;10418352;28;20721;-66
2021/01/13 11:10:29;;;;;;;7.20;2.20;;;3.20;99.90;;;;;;10409074;28;20107;-67
2021/01/13 11:15:31;;;;;;;10.73;2.55;;;3.10;99.90;;;;;;10442385;28;20049;-67
2021/01/13 11:20:33;;;;;;;12.02;2.60;;;3.30;99.90;;;;;;10412201;28;20049;-66
2021/01/13 11:25:37;;;;;;;6.57;2.30;;;3.30;99.90;;;;;;10412511;28;20135;-66
2021/01/13 11:30:40;;;;;;;7.10;2.80;;;3.30;99.90;;;;;;10423880;28;20131;-68
2021/01/13 11:35:47;;;;;;;5.75;2.53;;;3.60;99.90;;;;;;10421523;28;20140;-66
2021/01/13 11:41:16;;;;;;;7.78;2.40;;;3.70;99.90;;;;;;10395093;28;20045;-66
2021/01/13 11:46:30;;;;;;;9.65;2.08;;;3.90;99.90;;;;;;10421709;28;20048;-67
2021/01/13 11:51:41;;;;;;;9.43;1.80;;;4.00;99.90;;;;;;10409282;28;20048;-67
2021/01/13 11:56:42;;;;;;;10.32;2.30;;;4.10;99.90;;;;;;10411430;28;20041;-68
2021/01/13 12:01:48;;;;;;;8.77;1.63;;;4.10;99.90;;;;;;10411533;28;20042;-67
2021/01/13 12:06:59;;;;;;;5.70;1.58;;;4.00;99.90;;;;;;10420001;28;20052;-67
2021/01/13 12:12:00;;;;;;;8.57;2.78;;;4.10;99.90;;;;;;10437890;28;20057;-66
2021/01/13 12:17:02;;;;;;;4.75;1.50;;;4.20;99.90;;;;;;10439127;28;20099;-67
2021/01/13 12:22:04;;;;;;;11.20;2.47;;;4.30;99.90;;;;;;10446271;28;20486;-66
2021/01/13 12:27:22;;;;;;;10.10;1.80;;;4.30;99.90;;;;;;10428289;28;20106;-67
2021/01/13 12:32:26;;;;;;;7.10;1.88;;;4.50;99.90;;;;;;10384782;28;20036;-67
2021/01/13 12:37:27;;;;;;;4.75;1.17;;;4.60;99.90;;;;;;10438129;28;20056;-65
2021/01/13 12:42:30;;;;;;;4.53;1.27;;;4.80;99.90;;;;;;10431897;28;20036;-65
2021/01/13 12:47:31;;;;;;;8.27;0.80;;;4.80;99.10;;;;;;10446446;28;20059;-64
2021/01/13 12:52:32;;;;;;;3.55;0.70;;;4.80;99.10;;;;;;10443117;28;20052;-65
2021/01/13 12:57:33;;;;;;;2.40;1.15;;;4.80;98.50;;;;;;10437892;28;20125;-64
2021/01/13 13:02:35;;;;;;;5.93;1.05;;;4.80;98.30;;;;;;10428886;28;20431;-65
2021/01/13 13:07:37;;;;;;;3.17;0.98;;;5.00;97.40;;;;;;10417939;28;20107;-65
2021/01/13 13:12:38;;;;;;;7.10;0.95;;;4.90;96.10;;;;;;10450068;28;20126;-65
2021/01/13 13:17:40;;;;;;;2.97;0.60;;;4.70;95.80;;;;;;10426162;28;20049;-65
2021/01/13 13:22:41;;;;;;;2.17;0.68;;;4.70;95.90;;;;;;10368582;28;20049;-65
2021/01/13 13:27:42;;;;;;;3.97;1.00;;;4.70;94.60;;;;;;10427473;28;20053;-65
2021/01/13 13:32:44;;;;;;;4.32;0.88;;;4.60;93.50;;;;;;10420361;28;20038;-66
2021/01/13 13:37:45;;;;;;;4.43;0.80;;;4.60;93.80;;;;;;10413635;28;20053;-64
2021/01/13 13:42:46;;;;;;;3.80;1.05;;;4.70;92.90;;;;;;10439312;28;20068;-65
2021/01/13 13:47:47;;;;;;;3.42;0.80;;;4.70;92.60;;;;;;10440995;28;20457;-64
2021/01/13 13:52:48;;;;;;;2.63;0.77;;;4.70;92.60;;;;;;10445837;28;20103;-65
2021/01/13 13:57:50;;;;;;;4.85;1.08;;;4.70;92.10;;;;;;10396459;28;20053;-65
2021/01/13 14:02:59;;;;;;;3.67;1.20;;;4.70;92.40;;;;;;10418116;28;20119;-65
2021/01/13 14:08:01;;;;;;;2.55;0.93;;;4.60;92.20;;;;;;10446533;28;20064;-65
2021/01/13 14:13:02;;;;;;;1.75;0.90;;;4.60;92.70;;;;;;10446562;28;20040;-65
2021/01/13 14:18:06;;;;;;;3.00;1.10;;;4.50;92.80;;;;;;10447368;28;20056;-64
2021/01/13 14:23:08;;;;;;;3.78;0.52;;;4.50;92.40;;;;;;10448216;28;20040;-64
2021/01/13 14:28:10;;;;;;;2.42;0.65;;;4.50;92.30;;;;;;10432244;28;20049;-64
2021/01/13 14:33:11;;;;;;;9.15;0.70;;;4.60;92.20;;;;;;10448096;28;20455;-65
2021/01/13 14:38:13;;;;;;;3.13;0.60;;;4.40;91.90;;;;;;10445528;28;20061;-66
2021/01/13 14:43:14;;;;;;;3.63;0.70;;;4.30;92.60;;;;;;10444227;28;20063;-66
2021/01/13 14:48:16;;;;;;;1.33;0.60;;;4.30;92.20;;;;;;10445797;28;20047;-66
2021/01/13 14:53:17;;;;;;;4.07;0.60;;;4.20;92.50;;;;;;10430162;28;20556;-66
2021/01/13 14:58:18;;;;;;;2.70;0.60;;;4.10;93.00;;;;;;10438527;28;20080;-65
2021/01/13 15:03:20;;;;;;;1.88;0.50;;;4.10;93.30;;;;;;10430725;28;20982;-65
2021/01/13 15:08:23;;;;;;;6.90;0.60;;;4.00;93.60;;;;;;10410499;28;20028;-65
2021/01/13 15:13:24;;;;;;;3.40;0.55;;;3.90;93.70;;;;;;10427803;28;20041;-65
2021/01/13 15:18:25;;;;;;;4.97;1.08;;;3.90;94.10;;;;;;10411491;28;20104;-65
2021/01/13 15:23:27;;;;;;;3.15;0.85;;;3.80;94.30;;;;;;10436467;28;20045;-65
2021/01/13 15:28:28;;;;;;;2.55;0.68;;;3.70;95.00;;;;;;10402717;28;20046;-65
2021/01/13 15:33:29;;;;;;;1.55;0.60;;;3.60;95.00;;;;;;10431238;28;20506;-65
2021/01/13 15:38:31;;;;;;;1.63;0.60;;;3.60;95.20;;;;;;10432976;28;20049;-65
2021/01/13 15:43:32;;;;;;;5.85;0.73;;;3.50;95.60;;;;;;10443425;28;20048;-65
2021/01/13 15:48:33;;;;;;;8.60;0.70;;;3.40;95.70;;;;;;10431423;28;20041;-64
2021/01/13 15:53:38;;;;;;;0.90;0.50;;;3.40;95.30;;;;;;10437444;28;20045;-64
2021/01/13 15:58:53;;;;;;;3.15;1.00;;;3.40;95.40;;;;;;10431483;28;20060;-65
2021/01/13 16:03:55;;;;;;;1.35;0.93;;;3.30;95.80;;;;;;10439489;28;20122;-65
2021/01/13 16:08:57;;;;;;;4.97;1.65;;;3.20;96.10;;;;;;10409553;28;20457;-66
2021/01/13 16:14:00;;;;;;;3.15;0.60;;;3.20;96.50;;;;;;10439307;28;20048;-65
2021/01/13 16:19:01;;;;;;;3.78;1.00;;;3.10;96.50;;;;;;10424113;28;20437;-65
2021/01/13 16:24:04;;;;;;;2.33;1.10;;;3.00;96.80;;;;;;10435027;28;20040;-68
2021/01/13 16:29:06;;;;;;;7.00;1.25;;;3.10;96.60;;;;;;10432102;28;20105;-68
2021/01/13 16:34:08;;;;;;;7.60;1.30;;;2.90;97.20;;;;;;10431925;28;20789;-68
2021/01/13 16:39:10;;;;;;;3.05;1.67;;;2.90;97.50;;;;;;10437196;28;20061;-68
2021/01/13 16:44:22;;;;;;;7.68;1.65;;;2.80;97.90;;;;;;10444914;28;20429;-69
2021/01/13 16:49:24;;;;;;;6.35;1.83;;;2.80;97.90;;;;;;10429203;28;20061;-68
2021/01/13 16:54:25;;;;;;;4.07;1.40;;;2.80;98.10;;;;;;10410428;28;20048;-69
2021/01/13 16:59:29;;;;;;;3.53;1.70;;;2.70;98.60;;;;;;10410139;28;20057;-66
2021/01/13 17:04:31;;;;;;;8.02;2.03;;;2.70;98.80;;;;;;10409682;28;20057;-68
2021/01/13 17:09:32;;;;;;;9.30;1.65;;;2.60;99.40;;;;;;10420816;28;20052;-67
2021/01/13 17:14:33;;;;;;;3.90;1.30;;;2.60;99.40;;;;;;10422034;28;20076;-68
2021/01/13 17:19:35;;;;;;;7.57;1.75;;;2.60;99.70;;;;;;10429358;28;20531;-67
2021/01/13 17:24:36;;;;;;;5.00;1.65;;;2.60;99.70;;;;;;10439456;28;20098;-67
2021/01/13 17:29:38;;;;;;;5.32;1.90;;;2.60;99.90;;;;;;10426056;28;20098;-68
2021/01/13 17:34:39;;;;;;;8.93;2.65;;;2.60;99.90;;;;;;10419523;28;20044;-67
2021/01/13 17:39:41;;;;;;;5.30;1.77;;;2.60;99.90;;;;;;10400289;28;20092;-67
2021/01/13 17:44:42;;;;;;;7.85;1.63;;;2.60;99.90;;;;;;10415098;28;20050;-69
2021/01/13 17:50:00;;;;;;;7.40;2.05;;;2.60;99.90;;;;;;10395512;28;20050;-68
2021/01/13 17:55:01;;;;;;;4.47;2.35;;;2.50;99.90;;;;;;10403010;28;20076;-68
2021/01/13 18:00:06;;;;;;;8.20;1.88;;;2.60;99.90;;;;;;10417517;28;20123;-66
2021/01/13 18:05:13;;;;;;;3.28;1.70;;;2.60;99.90;;;;;;10416551;28;20498;-67
2021/01/13 18:10:19;;;;;;;3.28;1.70;;;2.60;99.90;;;;;;10400647;28;20056;-67
2021/01/13 18:15:26;;;;;;;8.18;2.30;;;2.50;99.90;;;;;;10440264;28;20052;-68
2021/01/13 18:20:29;;;;;;;9.50;1.87;;;2.50;99.90;;;;;;10425167;28;20059;-67
2021/01/13 18:25:30;;;;;;;4.85;1.85;;;2.50;99.90;;;;;;10453722;28;20056;-67
2021/01/13 18:30:32;;;;;;;7.00;1.73;;;2.50;99.90;;;;;;10441958;28;20060;-66
2021/01/13 18:35:35;;;;;;;6.25;2.60;;;2.50;99.90;;;;;;10426030;28;20123;-66
2021/01/13 18:40:38;;;;;;;4.10;1.50;;;2.50;99.90;;;;;;10429471;28;20053;-66
2021/01/13 18:45:43;;;;;;;4.95;2.05;;;2.50;99.90;;;;;;10444309;28;20083;-67
2021/01/13 18:50:47;;;;;;;5.78;1.80;;;2.40;99.90;;;;;;10417055;28;20169;-66
2021/01/13 18:55:48;;;;;;;4.57;2.22;;;2.50;99.90;;;;;;10439629;28;20430;-66
2021/01/13 19:00:49;;;;;;;10.07;2.78;;;2.50;99.90;;;;;;10437018;28;20048;-65
2021/01/13 19:05:51;;;;;;;5.70;2.10;;;2.40;99.90;;;;;;10388874;28;20053;-65
2021/01/13 19:10:52;;;;;;;4.55;1.83;;;2.40;99.90;;;;;;10438534;28;20056;-65
2021/01/13 19:16:16;;;;;;;9.10;2.30;;;2.40;99.90;;;;;;10435542;28;20068;-67
2021/01/13 19:21:18;;;;;;;7.40;2.38;;;2.40;99.90;;;;;;10452629;28;20048;-65
2021/01/13 19:26:20;;;;;;;5.47;2.55;;;2.30;99.90;;;;;;10388979;28;20049;-65
2021/01/13 19:31:30;;;;;;;5.07;2.08;;;2.30;99.90;;;;;;10418955;28;20060;-67
2021/01/13 19:36:32;;;;;;;12.95;2.40;;;2.40;99.90;;;;;;10412285;28;20051;-66
2021/01/13 19:41:35;;;;;;;7.05;2.25;;;2.50;99.90;;;;;;10427225;28;20046;-66
2021/01/13 19:46:36;;;;;;;7.65;3.00;;;2.60;99.90;;;;;;10373635;28;20494;-66
2021/01/13 19:51:38;;;;;;;4.35;2.22;;;2.60;99.90;;;;;;10446365;28;20041;-66
2021/01/13 19:56:40;;;;;;;6.25;2.72;;;2.70;99.90;;;;;;10433363;28;20053;-66
2021/01/13 20:01:43;;;;;;;6.82;2.30;;;2.70;99.90;;;;;;10434112;28;20791;-67
2021/01/13 20:06:45;;;;;;;6.40;2.25;;;2.80;99.90;;;;;;10424566;28;20107;-66
2021/01/13 20:11:49;;;;;;;7.88;2.65;;;2.90;99.90;;;;;;10429819;28;20153;-66
2021/01/13 20:16:50;;;;;;;9.23;2.78;;;2.80;99.90;;;;;;10406932;28;20126;-66
2021/01/13 20:21:51;;;;;;;9.02;2.65;;;2.80;99.90;;;;;;10392668;28;20061;-67
2021/01/13 20:26:52;;;;;;;6.55;3.13;;;2.90;99.90;;;;;;10431741;28;20060;-66
2021/01/13 20:31:53;;;;;;;10.52;2.65;;;2.90;99.90;;;;;;10410066;28;20475;-67
2021/01/13 20:36:55;;;;;;;6.47;2.28;;;3.00;99.90;;;;;;10413616;28;20048;-67
2021/01/13 20:41:56;;;;;;;6.35;2.47;;;2.90;99.90;;;;;;10416517;28;20048;-66
2021/01/13 20:46:58;;;;;;;7.55;2.58;;;2.90;99.90;;;;;;10388072;28;20053;-67
2021/01/13 20:51:59;;;;;;;8.40;3.25;;;2.90;99.90;;;;;;10428622;28;20060;-66
2021/01/13 20:57:00;;;;;;;6.50;3.22;;;2.90;99.90;;;;;;10427953;28;20482;-67
2021/01/13 21:02:04;;;;;;;7.25;3.08;;;3.10;99.90;;;;;;10392925;28;20433;-66
2021/01/13 21:07:09;;;;;;;11.85;4.20;;;3.10;99.90;;;;;;10399205;28;20044;-66
2021/01/13 21:12:11;;;;;;;10.60;4.07;;;3.20;99.90;;;;;;10410697;28;20091;-66
2021/01/13 21:17:12;;;;;;;6.18;3.22;;;3.20;99.90;;;;;;10434102;28;20471;-67
2021/01/13 21:22:13;;;;;;;5.20;3.30;;;3.30;99.90;;;;;;10432101;28;20046;-67
2021/01/13 21:27:15;;;;;;;8.15;3.25;;;3.30;99.90;;;;;;10441745;28;20491;-66
2021/01/13 21:32:16;;;;;;;6.60;3.28;;;3.30;99.90;;;;;;10439124;28;20068;-66
2021/01/13 21:37:17;;;;;;;8.77;3.83;;;3.30;99.90;;;;;;10435170;28;20104;-66
2021/01/13 21:42:18;;;;;;;10.60;4.03;;;3.30;99.90;;;;;;10437962;28;20054;-66
2021/01/13 21:47:20;;;;;;;12.02;4.68;;;3.30;99.90;;;;;;10438707;28;20037;-66
2021/01/13 21:52:21;;;;;;;8.32;3.92;;;3.30;99.90;;;;;;10437764;28;20106;-65
2021/01/13 21:57:22;;;;;;;12.73;4.45;;;3.30;99.90;;;;;;10449803;28;20522;-65
2021/01/13 22:02:24;;;;;;;7.95;3.90;;;3.30;99.90;;;;;;10444378;28;20044;-66
2021/01/13 22:07:25;;;;;;;9.73;4.75;;;3.30;99.90;;;;;;10439051;28;20044;-66
2021/01/13 22:12:26;;;;;;;7.38;3.90;;;3.30;99.90;;;;;;10404354;28;20068;-66
2021/01/13 22:17:32;;;;;;;10.13;4.10;;;3.30;99.90;;;;;;10441043;28;20053;-66
2021/01/13 22:22:33;;;;;;;9.77;4.63;;;3.30;99.90;;;;;;10432017;28;20045;-66
2021/01/13 22:27:35;;;;;;;7.50;4.20;;;3.30;99.90;;;;;;10416791;28;20048;-66
2021/01/13 22:32:38;;;;;;;9.98;4.28;;;3.30;99.90;;;;;;10421072;28;20053;-66
2021/01/13 22:37:39;;;;;;;8.95;4.43;;;3.40;99.90;;;;;;10412382;28;20049;-66
2021/01/13 22:42:40;;;;;;;10.75;4.03;;;3.40;99.90;;;;;;10422298;28;20037;-66
2021/01/13 22:47:43;;;;;;;12.68;4.57;;;3.40;99.90;;;;;;10407518;28;20044;-67
2021/01/13 22:52:44;;;;;;;12.05;3.60;;;3.40;99.90;;;;;;10418337;28;20099;-66
2021/01/13 22:57:45;;;;;;;12.85;5.32;;;3.60;99.90;;;;;;10414739;28;21176;-66
2021/01/13 23:02:46;;;;;;;14.30;4.93;;;3.60;99.90;;;;;;10438994;28;20052;-66
2021/01/13 23:07:48;;;;;;;15.85;4.32;;;3.60;99.90;;;;;;10420518;28;20045;-66
2021/01/13 23:12:49;;;;;;;10.90;3.88;;;3.60;99.90;;;;;;10440240;28;20475;-66
2021/01/13 23:17:50;;;;;;;8.20;3.70;;;3.60;99.90;;;;;;10405539;28;20106;-66
2021/01/13 23:22:52;;;;;;;9.10;3.83;;;3.50;99.90;;;;;;10401306;28;20451;-66
2021/01/13 23:27:53;;;;;;;10.35;2.28;;;3.60;99.90;;;;;;10405202;28;20103;-66
2021/01/13 23:32:56;;;;;;;6.72;2.53;;;3.60;99.90;;;;;;10408401;28;20041;-67
2021/01/13 23:37:58;;;;;;;8.70;2.80;;;3.70;99.90;;;;;;10407476;28;20531;-66
2021/01/13 23:42:59;;;;;;;3.78;2.80;;;3.70;99.90;;;;;;10412387;28;20053;-66
2021/01/13 23:48:01;;;;;;;7.70;2.30;;;3.70;99.90;;;;;;10416296;28;20050;-67
2021/01/13 23:53:02;;;;;;;10.43;3.08;;;3.80;99.90;;;;;;10413160;28;20367;-66
2021/01/13 23:58:03;;;;;;;11.23;2.88;;;3.80;99.90;;;;;;10424953;28;20107;-66
